Time;durP1;ratioP1;P1;durP2;ratioP2;P2;SDS_P1;SDS_P2;PMS_P1;PMS_P2;Temp;Humidity;BMP_temperature;BMP_pressure;BME280_temperature;BME280_humidity;BME280_pressure;Samples;Min_cycle;Max_cycle;Signal;HPM_P1;HPM_P2
2024/02/13 00:00:49;;;;;;;19.38;10.90;;;5.00;99.90;;;;;;7374144;19;20022;-66
2024/02/13 00:03:15;;;;;;;17.20;10.65;;;5.00;99.90;;;;;;7374190;19;20018;-66
2024/02/13 00:05:43;;;;;;;15.85;11.45;;;5.00;99.90;;;;;;7375485;19;20050;-66
2024/02/13 00:08:12;;;;;;;17.13;11.05;;;5.00;99.90;;;;;;7358474;19;20021;-67
2024/02/13 00:10:40;;;;;;;19.27;11.05;;;5.00;99.90;;;;;;7373963;19;20026;-66
2024/02/13 00:13:06;;;;;;;16.38;11.35;;;5.00;99.90;;;;;;7377193;19;20793;-66
2024/02/13 00:15:32;;;;;;;17.67;11.27;;;5.00;99.90;;;;;;7378732;19;20040;-67
2024/02/13 00:17:59;;;;;;;17.45;10.95;;;4.90;99.90;;;;;;7378534;19;20018;-68
2024/02/13 00:20:27;;;;;;;21.63;11.85;;;4.90;99.90;;;;;;7380216;19;20014;-67
2024/02/13 00:22:55;;;;;;;19.38;11.88;;;4.80;99.90;;;;;;7376313;19;20023;-67
2024/02/13 00:25:22;;;;;;;16.52;11.50;;;4.80;99.90;;;;;;7377633;19;20043;-67
2024/02/13 00:27:49;;;;;;;17.90;11.88;;;4.70;99.90;;;;;;7381873;19;20018;-67
2024/02/13 00:30:16;;;;;;;17.52;11.30;;;4.70;99.90;;;;;;7381037;19;20081;-67
2024/02/13 00:33:05;;;;;;;18.83;11.68;;;4.60;99.90;;;;;;7382677;19;20090;-67
2024/02/13 00:35:53;;;;;;;19.48;12.70;;;4.60;99.90;;;;;;7378096;19;20038;-67
2024/02/13 00:38:24;;;;;;;19.55;11.95;;;4.60;99.90;;;;;;7380211;19;20007;-67
2024/02/13 00:40:51;;;;;;;15.43;11.82;;;4.50;99.90;;;;;;7377320;19;20094;-67
2024/02/13 00:43:20;;;;;;;19.95;12.90;;;4.50;99.90;;;;;;7376707;19;20019;-66
2024/02/13 00:45:47;;;;;;;18.92;12.80;;;4.50;99.90;;;;;;7376309;19;20479;-67
2024/02/13 00:48:13;;;;;;;21.85;13.38;;;4.40;99.90;;;;;;7373530;19;20045;-66
2024/02/13 00:50:39;;;;;;;20.52;12.35;;;4.40;99.90;;;;;;7376501;19;20026;-67
2024/02/13 00:53:06;;;;;;;21.50;12.98;;;4.40;99.90;;;;;;7377939;19;20014;-67
2024/02/13 00:55:32;;;;;;;22.13;13.00;;;4.40;99.90;;;;;;7379304;19;20395;-67
2024/02/13 00:58:00;;;;;;;24.40;12.57;;;4.40;99.90;;;;;;7380523;19;20021;-67
2024/02/13 01:00:26;;;;;;;16.98;11.77;;;4.40;99.90;;;;;;7379401;19;21357;-67
2024/02/13 01:02:55;;;;;;;17.77;12.13;;;4.40;99.90;;;;;;7376766;19;20039;-66
2024/02/13 01:05:22;;;;;;;17.05;12.38;;;4.40;99.90;;;;;;7375217;19;20094;-66
2024/02/13 01:07:48;;;;;;;21.83;13.57;;;4.40;99.90;;;;;;7369437;19;20019;-66
2024/02/13 01:10:15;;;;;;;21.20;12.35;;;4.30;99.90;;;;;;7378135;19;20039;-67
2024/02/13 01:12:42;;;;;;;19.70;13.30;;;4.30;99.90;;;;;;7378774;19;20015;-67
2024/02/13 01:15:08;;;;;;;23.48;13.88;;;4.30;99.90;;;;;;7378093;19;20027;-67
2024/02/13 01:17:35;;;;;;;21.77;12.57;;;4.30;99.90;;;;;;7376851;19;20022;-67
2024/02/13 01:20:01;;;;;;;18.33;13.30;;;4.30;99.90;;;;;;7377527;19;20019;-67
2024/02/13 01:22:28;;;;;;;20.15;13.63;;;4.30;99.90;;;;;;7375722;19;20032;-67
2024/02/13 01:24:55;;;;;;;25.65;14.40;;;4.20;99.90;;;;;;7375887;19;20015;-67
2024/02/13 01:27:22;;;;;;;24.75;15.07;;;4.20;99.90;;;;;;7374936;19;20019;-67
2024/02/13 01:29:48;;;;;;;22.77;14.57;;;4.20;99.90;;;;;;7375140;19;20942;-66
2024/02/13 01:32:16;;;;;;;26.02;16.13;;;4.20;99.90;;;;;;7377207;19;20019;-66
2024/02/13 01:34:42;;;;;;;25.70;16.25;;;4.20;99.90;;;;;;7370977;19;20019;-67
2024/02/13 01:37:08;;;;;;;32.40;17.02;;;4.20;99.90;;;;;;7375175;19;20018;-66
2024/02/13 01:39:34;;;;;;;24.17;16.75;;;4.20;99.90;;;;;;7374408;19;20087;-66
2024/02/13 01:42:01;;;;;;;29.10;18.23;;;4.20;99.90;;;;;;7376138;19;20390;-66
2024/02/13 01:44:28;;;;;;;27.55;18.05;;;4.10;99.90;;;;;;7375774;19;20054;-67
2024/02/13 01:46:57;;;;;;;29.63;19.23;;;4.20;99.90;;;;;;7374154;19;20031;-66
2024/02/13 01:49:23;;;;;;;30.05;20.55;;;4.10;99.90;;;;;;7370439;19;20015;-66
2024/02/13 01:51:51;;;;;;;35.10;21.00;;;4.20;99.90;;;;;;7372292;19;20027;-67
2024/02/13 01:54:18;;;;;;;34.33;22.65;;;4.20;99.90;;;;;;7371887;19;20581;-66
2024/02/13 01:56:46;;;;;;;33.33;24.45;;;4.10;99.90;;;;;;7371265;19;20022;-66
2024/02/13 01:59:15;;;;;;;35.90;22.08;;;4.20;99.90;;;;;;7375354;19;20086;-67
2024/02/13 02:01:42;;;;;;;35.03;23.60;;;4.10;99.90;;;;;;7376358;19;20014;-66
2024/02/13 02:04:09;;;;;;;37.58;24.42;;;4.20;99.90;;;;;;7374002;19;20589;-66
2024/02/13 02:06:37;;;;;;;37.63;23.20;;;4.20;99.90;;;;;;7378072;19;20059;-66
2024/02/13 02:09:06;;;;;;;32.22;23.40;;;4.20;99.90;;;;;;7377824;19;20098;-66
2024/02/13 02:11:33;;;;;;;39.00;25.38;;;4.20;99.90;;;;;;7379926;19;20379;-65
2024/02/13 02:14:04;;;;;;;35.92;24.40;;;4.20;99.90;;;;;;7379139;19;20090;-65
2024/02/13 02:16:49;;;;;;;33.72;25.13;;;4.20;99.90;;;;;;7381796;19;20014;-66
2024/02/13 02:19:16;;;;;;;37.40;25.35;;;4.20;99.90;;;;;;7385199;19;20045;-66
2024/02/13 02:21:45;;;;;;;31.42;24.25;;;4.20;99.90;;;;;;7380470;19;20022;-66
2024/02/13 02:24:11;;;;;;;35.03;24.13;;;4.10;99.90;;;;;;7386070;19;20014;-66
2024/02/13 02:26:51;;;;;;;39.25;23.65;;;4.20;99.90;;;;;;7384319;19;20022;-66
2024/02/13 02:29:23;;;;;;;29.90;23.10;;;4.20;99.90;;;;;;7387428;19;20002;-66
2024/02/13 02:31:51;;;;;;;36.72;24.48;;;4.10;99.90;;;;;;7383429;19;20031;-68
2024/02/13 02:34:18;;;;;;;35.70;25.52;;;4.10;99.90;;;;;;7386203;19;20016;-67
2024/02/13 02:36:52;;;;;;;36.75;25.55;;;4.10;99.90;;;;;;7387015;19;20103;-66
2024/02/13 02:39:20;;;;;;;32.20;24.50;;;4.20;99.90;;;;;;7374995;19;20022;-65
2024/02/13 02:41:46;;;;;;;35.22;24.85;;;4.20;99.90;;;;;;7379788;19;20022;-66
2024/02/13 02:44:13;;;;;;;33.83;24.45;;;4.20;99.90;;;;;;7387876;19;20018;-67
2024/02/13 02:46:39;;;;;;;34.58;25.23;;;4.20;99.90;;;;;;7387128;19;20497;-67
2024/02/13 02:49:07;;;;;;;34.67;24.83;;;4.20;99.90;;;;;;7385060;19;20088;-67
2024/02/13 02:51:33;;;;;;;34.58;25.52;;;4.20;99.90;;;;;;7377880;19;20014;-66
2024/02/13 02:53:59;;;;;;;32.97;23.42;;;4.20;99.90;;;;;;7377979;19;20014;-66
2024/02/13 02:56:25;;;;;;;38.08;24.35;;;4.20;99.90;;;;;;7375952;19;20035;-66
2024/02/13 02:58:52;;;;;;;36.13;24.02;;;4.20;99.90;;;;;;7380596;19;20022;-66
2024/02/13 03:01:19;;;;;;;31.23;23.50;;;4.20;99.90;;;;;;7381600;19;20055;-66
2024/02/13 03:03:45;;;;;;;29.73;22.67;;;4.20;99.90;;;;;;7379037;19;20082;-65
2024/02/13 03:06:13;;;;;;;34.55;24.00;;;4.20;99.90;;;;;;7379856;19;20017;-65
2024/02/13 03:08:40;;;;;;;30.75;23.52;;;4.20;99.90;;;;;;7379193;19;20015;-67
2024/02/13 03:11:06;;;;;;;28.67;23.67;;;4.10;99.90;;;;;;7368582;19;20521;-66
2024/02/13 03:13:32;;;;;;;29.30;23.75;;;4.20;99.90;;;;;;7372689;19;20042;-66
2024/02/13 03:15:59;;;;;;;26.65;22.55;;;4.20;99.90;;;;;;7374011;19;20537;-66
2024/02/13 03:18:26;;;;;;;27.77;22.33;;;4.20;99.90;;;;;;7380553;19;20105;-66
2024/02/13 03:20:54;;;;;;;28.77;24.13;;;4.10;99.90;;;;;;7376176;19;20069;-66
2024/02/13 03:23:20;;;;;;;32.13;23.98;;;4.10;99.90;;;;;;7377124;19;20025;-65
2024/02/13 03:25:46;;;;;;;27.27;23.30;;;4.10;99.90;;;;;;7375929;19;20074;-66
2024/02/13 03:28:32;;;;;;;28.95;22.77;;;4.20;99.90;;;;;;7377866;19;20228;-66
2024/02/13 03:31:00;;;;;;;29.77;24.35;;;4.10;99.90;;;;;;7368816;19;20074;-66
2024/02/13 03:33:26;;;;;;;33.25;23.58;;;4.10;99.90;;;;;;7377459;19;20022;-66
2024/02/13 03:35:52;;;;;;;28.52;23.60;;;4.10;99.90;;;;;;7377223;19;20026;-66
2024/02/13 03:38:19;;;;;;;32.70;24.38;;;4.10;99.90;;;;;;7375595;19;20515;-66
2024/02/13 03:40:46;;;;;;;28.00;23.10;;;4.00;99.90;;;;;;7373499;19;20097;-66
2024/02/13 03:43:12;;;;;;;30.50;24.15;;;4.00;99.90;;;;;;7376435;19;20466;-65
2024/02/13 03:45:38;;;;;;;30.95;24.17;;;4.00;99.90;;;;;;7377400;19;20026;-66
2024/02/13 03:48:11;;;;;;;31.10;23.98;;;4.00;99.90;;;;;;7377345;19;20458;-66
2024/02/13 03:50:39;;;;;;;30.38;24.10;;;4.00;99.90;;;;;;7374359;19;20038;-66
2024/02/13 03:53:06;;;;;;;28.77;24.60;;;4.00;99.90;;;;;;7377984;19;20057;-66
2024/02/13 03:55:33;;;;;;;33.58;24.88;;;4.00;99.90;;;;;;7376175;19;20035;-65
2024/02/13 03:58:00;;;;;;;31.23;24.58;;;3.90;99.90;;;;;;7375211;19;20782;-67
2024/02/13 04:00:27;;;;;;;34.63;24.80;;;3.90;99.90;;;;;;7376239;19;20086;-65
2024/02/13 04:02:54;;;;;;;34.35;25.23;;;3.90;99.90;;;;;;7374372;19;20021;-66
2024/02/13 04:05:21;;;;;;;32.45;25.98;;;3.80;99.90;;;;;;7377855;19;20047;-66
2024/02/13 04:07:49;;;;;;;35.13;25.15;;;3.80;99.90;;;;;;7373425;19;20011;-66
2024/02/13 04:10:17;;;;;;;34.97;25.15;;;3.80;99.90;;;;;;7378290;19;20078;-65
2024/02/13 04:12:52;;;;;;;31.42;26.30;;;3.70;99.90;;;;;;7373962;19;20038;-66
2024/02/13 04:15:19;;;;;;;31.95;25.23;;;3.70;99.90;;;;;;7380796;19;20022;-66
2024/02/13 04:17:52;;;;;;;32.60;25.45;;;3.60;99.90;;;;;;7374195;19;20027;-65
2024/02/13 04:20:19;;;;;;;31.38;27.73;;;3.60;99.90;;;;;;7376113;19;20014;-66
2024/02/13 04:22:46;;;;;;;35.05;28.30;;;3.60;99.90;;;;;;7375687;19;20098;-66
2024/02/13 04:25:13;;;;;;;36.30;28.33;;;3.60;99.90;;;;;;7377181;19;20104;-66
2024/02/13 04:27:40;;;;;;;38.70;28.33;;;3.70;99.90;;;;;;7373623;19;20018;-66
2024/02/13 04:30:13;;;;;;;36.13;27.17;;;3.70;99.90;;;;;;7375897;19;20609;-66
2024/02/13 04:32:41;;;;;;;43.45;31.60;;;3.70;99.90;;;;;;7374141;19;20842;-66
2024/02/13 04:35:08;;;;;;;39.28;27.67;;;3.70;99.90;;;;;;7371487;19;20022;-66
2024/02/13 04:37:35;;;;;;;39.35;29.48;;;3.60;99.90;;;;;;7375415;19;20042;-66
2024/02/13 04:40:04;;;;;;;40.58;28.13;;;3.70;99.90;;;;;;7374881;19;20805;-65
2024/02/13 04:42:35;;;;;;;37.13;28.45;;;3.70;99.90;;;;;;7373280;19;20367;-65
2024/02/13 04:45:04;;;;;;;39.15;28.88;;;3.70;99.90;;;;;;7371618;19;20515;-66
2024/02/13 04:47:33;;;;;;;44.88;28.63;;;3.60;99.90;;;;;;7374594;19;20055;-66
2024/02/13 04:50:01;;;;;;;38.15;28.15;;;3.60;99.90;;;;;;7374451;19;20014;-66
2024/02/13 04:52:29;;;;;;;36.03;28.58;;;3.60;99.90;;;;;;7381595;19;20063;-67
2024/02/13 04:54:57;;;;;;;40.63;29.33;;;3.60;99.90;;;;;;7382050;19;20047;-67
2024/02/13 04:57:24;;;;;;;38.45;29.45;;;3.60;99.90;;;;;;7382724;19;20466;-67
2024/02/13 04:59:51;;;;;;;37.55;28.52;;;3.50;99.90;;;;;;7383722;19;20018;-67
2024/02/13 05:02:22;;;;;;;41.03;29.63;;;3.50;99.90;;;;;;7385030;19;20514;-67
2024/02/13 05:07:34;;;;;;;41.53;31.15;;;3.50;99.90;;;;;;7382127;19;20383;-66
2024/02/13 05:10:02;;;;;;;43.80;30.08;;;3.40;99.90;;;;;;7382191;19;20022;-67
2024/02/13 05:12:28;;;;;;;47.20;31.67;;;3.40;99.90;;;;;;7373927;19;20059;-65
2024/02/13 05:14:57;;;;;;;43.30;30.85;;;3.40;99.90;;;;;;7379268;19;20043;-66
2024/02/13 05:17:26;;;;;;;43.75;30.85;;;3.40;99.90;;;;;;7381914;19;20035;-67
2024/02/13 05:19:53;;;;;;;43.65;31.55;;;3.30;99.90;;;;;;7378571;19;20057;-66
2024/02/13 05:22:19;;;;;;;51.03;31.88;;;3.30;99.90;;;;;;7375862;19;20502;-67
2024/02/13 05:24:46;;;;;;;48.17;32.75;;;3.30;99.90;;;;;;7381460;19;20029;-67
2024/02/13 05:27:13;;;;;;;50.75;33.38;;;3.30;99.90;;;;;;7384421;19;20021;-68
2024/02/13 05:29:41;;;;;;;44.40;31.15;;;3.30;99.90;;;;;;7381328;19;20007;-68
2024/02/13 05:32:09;;;;;;;48.50;32.13;;;3.30;99.90;;;;;;7380802;19;20029;-69
2024/02/13 05:34:35;;;;;;;50.88;33.83;;;3.30;99.90;;;;;;7379155;19;20026;-68
2024/02/13 05:37:06;;;;;;;49.70;34.45;;;3.30;99.90;;;;;;7377326;19;20663;-68
2024/02/13 05:39:32;;;;;;;47.80;33.45;;;3.30;99.90;;;;;;7385115;19;20077;-68
2024/02/13 05:41:58;;;;;;;49.70;35.58;;;3.20;99.90;;;;;;7389001;19;20123;-68
2024/02/13 05:44:25;;;;;;;50.65;34.13;;;3.20;99.90;;;;;;7391162;19;20459;-69
2024/02/13 05:46:55;;;;;;;50.42;35.78;;;3.20;99.90;;;;;;7390854;19;20010;-69
2024/02/13 05:49:22;;;;;;;49.67;36.00;;;3.20;99.90;;;;;;7391949;19;20364;-68
2024/02/13 05:51:49;;;;;;;51.45;35.55;;;3.30;99.90;;;;;;7392253;19;20506;-68
2024/02/13 05:54:19;;;;;;;57.95;36.17;;;3.20;99.90;;;;;;7392365;19;20529;-66
2024/02/13 05:56:46;;;;;;;53.92;36.00;;;3.20;99.90;;;;;;7392570;19;20014;-66
2024/02/13 05:59:14;;;;;;;49.63;36.38;;;3.20;99.90;;;;;;7391536;19;20750;-68
2024/02/13 06:01:42;;;;;;;51.67;37.35;;;3.20;99.90;;;;;;7392638;19;20026;-66
2024/02/13 06:04:18;;;;;;;52.60;36.45;;;3.20;99.90;;;;;;7390311;19;20014;-66
2024/02/13 06:06:48;;;;;;;47.42;35.58;;;3.20;99.90;;;;;;7393607;19;20018;-68
2024/02/13 06:09:21;;;;;;;51.25;38.08;;;3.20;99.90;;;;;;7392221;19;20038;-67
2024/02/13 06:11:48;;;;;;;55.40;40.30;;;3.30;99.90;;;;;;7391037;19;20478;-67
2024/02/13 06:14:16;;;;;;;54.50;40.53;;;3.30;99.90;;;;;;7392034;19;20470;-67
2024/02/13 06:16:42;;;;;;;51.33;38.80;;;3.30;99.90;;;;;;7387118;19;20019;-67
2024/02/13 06:19:10;;;;;;;54.15;42.05;;;3.30;99.90;;;;;;7390146;19;20478;-67
2024/02/13 06:21:39;;;;;;;59.67;41.88;;;3.30;99.90;;;;;;7388650;19;20466;-67
2024/02/13 06:24:05;;;;;;;52.75;40.28;;;3.30;99.90;;;;;;7385686;19;20026;-67
2024/02/13 06:26:32;;;;;;;50.90;40.35;;;3.40;99.90;;;;;;7387305;19;20228;-68
2024/02/13 06:28:59;;;;;;;53.97;40.63;;;3.40;99.90;;;;;;7380889;19;20048;-67
2024/02/13 06:31:31;;;;;;;58.67;42.28;;;3.40;99.90;;;;;;7383662;19;20078;-67
2024/02/13 06:33:58;;;;;;;52.42;40.22;;;3.40;99.90;;;;;;7382746;19;20045;-67
2024/02/13 06:36:26;;;;;;;53.90;39.88;;;3.50;99.90;;;;;;7389374;19;20015;-67
2024/02/13 06:38:53;;;;;;;52.15;40.47;;;3.50;99.90;;;;;;7386310;19;20010;-67
2024/02/13 06:41:19;;;;;;;52.33;40.13;;;3.50;99.90;;;;;;7383247;19;20022;-66
2024/02/13 06:43:45;;;;;;;54.33;40.45;;;3.50;99.90;;;;;;7378464;19;20391;-66
2024/02/13 06:46:12;;;;;;;50.13;41.35;;;3.60;99.90;;;;;;7385129;19;20485;-66
2024/02/13 06:48:41;;;;;;;48.55;40.30;;;3.70;99.90;;;;;;7382414;19;20010;-66
2024/02/13 06:51:12;;;;;;;46.45;39.45;;;3.70;99.90;;;;;;7379920;19;20090;-69
2024/02/13 06:53:39;;;;;;;43.20;38.28;;;3.70;99.90;;;;;;7383129;19;20026;-70
2024/02/13 06:56:06;;;;;;;48.70;38.25;;;3.80;99.90;;;;;;7377059;19;20022;-67
2024/02/13 06:58:32;;;;;;;48.20;39.08;;;3.70;99.90;;;;;;7387239;19;20018;-67
2024/02/13 07:00:58;;;;;;;42.78;36.28;;;3.80;99.90;;;;;;7388031;19;20015;-67
2024/02/13 07:03:24;;;;;;;46.88;38.97;;;3.80;99.90;;;;;;7387440;19;20829;-67
2024/02/13 07:05:51;;;;;;;45.35;37.17;;;3.80;99.90;;;;;;7386590;19;20014;-67
2024/02/13 07:08:17;;;;;;;45.45;35.63;;;3.90;99.90;;;;;;7383991;19;20429;-66
2024/02/13 07:10:43;;;;;;;42.92;35.65;;;3.90;99.90;;;;;;7383689;19;20033;-67
2024/02/13 07:13:23;;;;;;;44.90;36.72;;;3.90;99.90;;;;;;7383699;19;20572;-67
2024/02/13 07:15:50;;;;;;;43.10;36.53;;;3.90;99.90;;;;;;7382376;19;20037;-66
2024/02/13 07:18:17;;;;;;;45.88;36.58;;;3.90;99.90;;;;;;7380231;19;20018;-66
2024/02/13 07:20:43;;;;;;;43.45;37.67;;;3.90;99.90;;;;;;7379638;19;20018;-68
2024/02/13 07:23:09;;;;;;;43.08;36.40;;;4.00;99.90;;;;;;7381694;19;20014;-66
2024/02/13 07:25:36;;;;;;;43.03;36.95;;;4.00;99.90;;;;;;7379231;19;20015;-67
2024/02/13 07:28:02;;;;;;;41.03;36.50;;;4.00;99.90;;;;;;7380629;19;20018;-66
2024/02/13 07:30:29;;;;;;;46.72;36.35;;;4.00;99.90;;;;;;7378217;19;20488;-66
2024/02/13 07:32:56;;;;;;;45.60;35.78;;;4.00;99.90;;;;;;7380147;19;20019;-66
2024/02/13 07:35:23;;;;;;;42.13;35.28;;;4.00;99.90;;;;;;7376899;19;20018;-66
2024/02/13 07:38:04;;;;;;;40.15;35.88;;;4.00;99.90;;;;;;7379438;19;20046;-66
2024/02/13 07:40:30;;;;;;;;;;;4.00;99.90;;;;;;7380632;19;20036;-66
2024/02/13 07:42:56;;;;;;;41.35;34.33;;;4.00;99.90;;;;;;7380206;19;19935;-66
2024/02/13 07:45:24;;;;;;;41.05;34.55;;;4.00;99.90;;;;;;7377691;19;21116;-64
2024/02/13 07:48:02;;;;;;;42.85;35.17;;;4.00;99.90;;;;;;7379617;19;20014;-63
2024/02/13 07:50:28;;;;;;;44.45;35.20;;;4.10;99.90;;;;;;7378077;19;20051;-66
2024/02/13 07:52:55;;;;;;;41.60;34.63;;;4.00;99.90;;;;;;7378850;19;20018;-66
2024/02/13 07:55:22;;;;;;;41.35;35.50;;;4.10;99.90;;;;;;7374156;19;20751;-66
2024/02/13 07:57:50;;;;;;;40.53;36.45;;;4.20;99.90;;;;;;7379798;19;21598;-66
2024/02/13 08:00:20;;;;;;;42.92;35.00;;;4.20;99.90;;;;;;7377555;19;20469;-66
2024/02/13 08:02:49;;;;;;;41.35;33.60;;;4.30;99.90;;;;;;7374101;19;20041;-63
2024/02/13 08:05:15;;;;;;;38.70;33.20;;;4.40;99.90;;;;;;7374436;19;20018;-66
2024/02/13 08:07:41;;;;;;;36.53;31.73;;;4.40;99.90;;;;;;7377126;19;20022;-64
2024/02/13 08:10:11;;;;;;;40.63;33.70;;;4.50;99.90;;;;;;7375552;19;20083;-64
2024/02/13 08:12:37;;;;;;;35.50;31.67;;;4.50;99.90;;;;;;7372526;19;20564;-63
2024/02/13 08:15:04;;;;;;;35.25;30.67;;;4.60;99.90;;;;;;7368556;19;20098;-62
2024/02/13 08:17:33;;;;;;;34.75;29.95;;;4.60;99.90;;;;;;7370969;19;20019;-64
2024/02/13 08:20:03;;;;;;;34.83;30.15;;;4.60;99.90;;;;;;7372992;19;20497;-64
2024/02/13 08:22:32;;;;;;;32.80;29.33;;;4.70;99.90;;;;;;7374817;19;20046;-64
2024/02/13 08:25:00;;;;;;;38.05;29.98;;;4.70;99.90;;;;;;7363463;19;20022;-64
2024/02/13 08:27:27;;;;;;;35.08;28.30;;;4.70;99.90;;;;;;7371411;19;20840;-64
2024/02/13 08:29:55;;;;;;;32.90;28.63;;;4.70;99.90;;;;;;7375453;19;20740;-64
2024/02/13 08:32:22;;;;;;;40.05;28.60;;;4.80;99.90;;;;;;7376044;19;20499;-64
2024/02/13 08:34:49;;;;;;;32.15;26.65;;;4.80;99.90;;;;;;7375695;19;20018;-64
2024/02/13 08:37:15;;;;;;;33.85;27.48;;;4.90;99.90;;;;;;7371955;19;20474;-64
2024/02/13 08:39:42;;;;;;;34.17;27.85;;;5.00;99.90;;;;;;7375726;19;20018;-62
2024/02/13 08:42:09;;;;;;;28.42;24.27;;;5.10;99.90;;;;;;7375826;19;20386;-64
2024/02/13 08:44:35;;;;;;;30.15;24.70;;;5.20;99.90;;;;;;7375009;19;20086;-66
2024/02/13 08:47:01;;;;;;;32.75;24.45;;;5.30;99.90;;;;;;7374284;19;20018;-64
2024/02/13 08:49:28;;;;;;;29.90;22.77;;;5.30;99.90;;;;;;7373480;19;20374;-64
2024/02/13 08:51:55;;;;;;;29.10;21.20;;;5.40;99.90;;;;;;7375181;19;20050;-64
2024/02/13 08:54:21;;;;;;;29.50;22.63;;;5.50;99.90;;;;;;7371029;19;20033;-64
2024/02/13 08:56:47;;;;;;;24.38;19.67;;;5.50;99.90;;;;;;7374357;19;20375;-63
2024/02/13 08:59:13;;;;;;;27.92;20.42;;;5.60;99.90;;;;;;7375235;19;20592;-65
2024/02/13 09:01:40;;;;;;;28.33;20.35;;;5.70;99.90;;;;;;7376452;19;20593;-65
2024/02/13 09:04:06;;;;;;;27.02;17.77;;;5.90;99.90;;;;;;7371853;19;20025;-64
2024/02/13 09:06:33;;;;;;;24.83;17.73;;;6.20;99.90;;;;;;7373718;19;20018;-63
2024/02/13 09:09:00;;;;;;;19.42;16.40;;;6.40;99.90;;;;;;7370098;19;21176;-64
2024/02/13 09:11:28;;;;;;;21.73;15.82;;;6.50;99.90;;;;;;7376121;19;20025;-64
2024/02/13 09:13:54;;;;;;;21.40;16.85;;;6.40;99.90;;;;;;7371228;19;20474;-64
2024/02/13 09:16:21;;;;;;;18.98;15.52;;;6.30;99.90;;;;;;7383006;19;20087;-64
2024/02/13 09:18:47;;;;;;;19.73;16.20;;;6.30;99.90;;;;;;7379139;19;20014;-64
2024/02/13 09:21:15;;;;;;;22.27;15.85;;;6.30;99.90;;;;;;7381720;19;20772;-64
2024/02/13 09:23:43;;;;;;;21.10;15.02;;;6.20;99.90;;;;;;7379769;19;20022;-64
2024/02/13 09:26:09;;;;;;;19.50;15.45;;;6.30;99.90;;;;;;7381845;19;20016;-64
2024/02/13 09:28:35;;;;;;;22.83;15.30;;;6.40;99.90;;;;;;7380281;19;20022;-64
2024/02/13 09:31:02;;;;;;;15.95;14.10;;;6.60;99.90;;;;;;7382218;19;20021;-64
2024/02/13 09:33:28;;;;;;;17.70;14.05;;;6.80;99.90;;;;;;7382827;19;20035;-64
2024/02/13 09:35:54;;;;;;;19.67;14.65;;;7.00;99.90;;;;;;7380686;19;20014;-64
2024/02/13 09:38:21;;;;;;;16.58;12.48;;;7.20;99.90;;;;;;7381906;19;20410;-64
2024/02/13 09:40:49;;;;;;;21.65;14.75;;;7.20;99.90;;;;;;7380213;19;20121;-64
2024/02/13 09:43:17;;;;;;;15.38;12.75;;;7.40;99.90;;;;;;7380411;19;20046;-65
2024/02/13 09:45:45;;;;;;;19.23;12.63;;;7.50;99.90;;;;;;7377699;19;20018;-64
2024/02/13 09:48:25;;;;;;;17.58;12.07;;;7.70;99.90;;;;;;7378404;19;20022;-64
2024/02/13 09:50:55;;;;;;;15.63;11.30;;;7.70;99.90;;;;;;7381057;19;20523;-64
2024/02/13 09:53:27;;;;;;;16.92;12.43;;;8.10;99.90;;;;;;7379384;19;20473;-66
2024/02/13 09:55:58;;;;;;;16.38;11.63;;;8.40;99.90;;;;;;7381283;19;20593;-67
2024/02/13 09:58:26;;;;;;;17.65;11.38;;;8.30;99.90;;;;;;7382128;19;20045;-64
2024/02/13 10:00:54;;;;;;;13.95;10.65;;;8.30;99.90;;;;;;7382723;19;20778;-64
2024/02/13 10:03:21;;;;;;;18.35;11.30;;;8.30;99.90;;;;;;7378686;19;20015;-65
2024/02/13 10:05:48;;;;;;;18.70;11.75;;;8.40;99.90;;;;;;7379360;19;20019;-64
2024/02/13 10:08:17;;;;;;;17.25;10.35;;;8.60;99.90;;;;;;7379253;19;20030;-65
2024/02/13 10:10:44;;;;;;;12.45;9.60;;;8.60;99.90;;;;;;7381173;19;20380;-64
2024/02/13 10:13:12;;;;;;;17.23;10.32;;;8.50;99.90;;;;;;7379284;19;20014;-65
2024/02/13 10:15:40;;;;;;;18.55;10.80;;;8.50;99.90;;;;;;7374158;19;20026;-64
2024/02/13 10:18:08;;;;;;;15.20;10.20;;;8.60;99.90;;;;;;7379990;19;20026;-64
2024/02/13 10:20:37;;;;;;;13.23;10.15;;;8.50;99.90;;;;;;7380537;19;20730;-65
2024/02/13 10:23:05;;;;;;;17.52;9.60;;;8.50;99.90;;;;;;7380785;19;20018;-64
2024/02/13 10:25:33;;;;;;;16.70;10.43;;;8.40;99.90;;;;;;7375250;19;20039;-64
2024/02/13 10:28:01;;;;;;;14.43;9.85;;;8.50;99.90;;;;;;7379694;19;20018;-65
2024/02/13 10:30:30;;;;;;;15.07;11.02;;;8.40;99.90;;;;;;7376751;19;20019;-65
2024/02/13 10:33:01;;;;;;;13.65;9.57;;;8.50;99.90;;;;;;7378990;19;20014;-65
2024/02/13 10:35:30;;;;;;;11.63;8.50;;;8.60;99.90;;;;;;7376329;19;20031;-64
2024/02/13 10:38:00;;;;;;;15.20;8.90;;;8.90;99.90;;;;;;7381975;19;20026;-66
2024/02/13 10:40:27;;;;;;;13.50;8.18;;;9.10;99.90;;;;;;7378324;19;20018;-66
2024/02/13 10:42:55;;;;;;;15.77;8.57;;;9.10;99.90;;;;;;7378609;19;20018;-66
2024/02/13 10:45:24;;;;;;;11.93;8.25;;;9.40;99.90;;;;;;7377632;19;20021;-66
2024/02/13 10:48:06;;;;;;;11.70;8.38;;;9.10;99.90;;;;;;7381130;19;20018;-66
2024/02/13 10:50:34;;;;;;;12.52;7.10;;;9.40;99.90;;;;;;7378577;19;20027;-66
2024/02/13 10:53:03;;;;;;;11.80;7.85;;;9.90;99.90;;;;;;7379533;19;20074;-66
2024/02/13 10:55:33;;;;;;;10.85;7.18;;;10.50;99.90;;;;;;7376967;19;20497;-66
2024/02/13 10:58:01;;;;;;;10.68;7.30;;;10.50;99.90;;;;;;7377225;19;20015;-66
2024/02/13 11:00:28;;;;;;;12.77;6.88;;;10.10;99.90;;;;;;7378664;19;20040;-66
2024/02/13 11:02:56;;;;;;;15.55;8.20;;;10.00;99.90;;;;;;7380161;19;20022;-66
2024/02/13 11:05:27;;;;;;;17.05;7.40;;;9.90;99.90;;;;;;7381076;19;20025;-66
2024/02/13 11:07:55;;;;;;;10.40;6.65;;;9.70;99.90;;;;;;7377513;19;20582;-66
2024/02/13 11:10:34;;;;;;;10.43;7.15;;;9.60;99.90;;;;;;7380004;19;20018;-64
2024/02/13 11:13:04;;;;;;;11.68;7.30;;;9.80;99.90;;;;;;7379389;19;20014;-66
2024/02/13 11:15:33;;;;;;;13.70;7.15;;;9.80;99.90;;;;;;7374066;19;20026;-66
2024/02/13 11:18:13;;;;;;;11.00;7.25;;;10.40;99.90;;;;;;7376974;19;20019;-66
2024/02/13 11:20:44;;;;;;;9.65;5.90;;;11.00;99.90;;;;;;7379199;19;20022;-66
2024/02/13 11:23:29;;;;;;;9.15;5.50;;;11.30;99.90;;;;;;7377576;19;20014;-66
2024/02/13 11:25:59;;;;;;;10.63;4.93;;;12.50;99.90;;;;;;7378011;19;21907;-66
2024/02/13 11:28:38;;;;;;;12.98;4.90;;;13.00;99.90;;;;;;7378103;19;20053;-66
2024/02/13 11:31:15;;;;;;;7.45;4.07;;;13.50;99.90;;;;;;7378351;19;20995;-66
2024/02/13 11:34:01;;;;;;;10.75;4.82;;;13.30;99.90;;;;;;7377123;19;20100;-66
2024/02/13 11:36:30;;;;;;;8.65;4.03;;;13.30;99.90;;;;;;7378561;19;20010;-65
2024/02/13 11:38:58;;;;;;;6.10;3.47;;;12.50;99.90;;;;;;7377245;19;20022;-66
2024/02/13 11:41:25;;;;;;;11.20;3.67;;;12.70;99.90;;;;;;7376354;19;20019;-66
2024/02/13 11:44:11;;;;;;;9.02;3.83;;;12.50;99.90;;;;;;7376329;19;20849;-66
2024/02/13 11:46:54;;;;;;;9.52;3.50;;;13.10;99.90;;;;;;7370481;19;20053;-66
2024/02/13 11:49:20;;;;;;;11.23;3.33;;;12.70;99.90;;;;;;7376490;19;20021;-66
2024/02/13 11:51:47;;;;;;;11.15;4.07;;;12.60;99.90;;;;;;7377852;19;20744;-66
2024/02/13 11:54:13;;;;;;;10.27;3.63;;;12.50;99.90;;;;;;7377659;19;20014;-66
2024/02/13 11:56:39;;;;;;;12.63;3.85;;;12.50;99.90;;;;;;7375874;19;20485;-66
2024/02/13 11:59:06;;;;;;;13.13;3.85;;;12.30;99.90;;;;;;7376734;19;20010;-66
2024/02/13 12:01:36;;;;;;;7.95;2.97;;;12.70;99.90;;;;;;7376870;19;20018;-66
2024/02/13 12:04:12;;;;;;;5.93;3.50;;;12.70;99.90;;;;;;7375719;19;20021;-66
2024/02/13 12:06:39;;;;;;;9.15;3.80;;;13.00;99.90;;;;;;7377589;19;21076;-66
2024/02/13 12:09:07;;;;;;;8.10;3.67;;;12.60;99.90;;;;;;7375408;19;20022;-64
2024/02/13 12:11:36;;;;;;;9.43;3.88;;;12.50;99.90;;;;;;7375259;19;20015;-65
2024/02/13 12:14:03;;;;;;;11.90;4.15;;;11.70;99.90;;;;;;7373220;19;20465;-64
2024/02/13 12:16:32;;;;;;;10.23;3.80;;;11.60;99.90;;;;;;7375108;19;20018;-66
2024/02/13 12:18:59;;;;;;;9.50;3.63;;;11.40;99.90;;;;;;7375654;19;20030;-65
2024/02/13 12:21:26;;;;;;;9.90;3.33;;;11.00;99.90;;;;;;7376853;19;20014;-64
2024/02/13 12:23:53;;;;;;;9.43;3.20;;;10.70;99.90;;;;;;7376123;19;20041;-66
2024/02/13 12:26:19;;;;;;;10.38;3.22;;;10.50;99.90;;;;;;7376128;19;20805;-64
2024/02/13 12:28:54;;;;;;;9.07;3.90;;;10.30;99.90;;;;;;7377330;19;20023;-66
2024/02/13 12:31:22;;;;;;;8.45;3.45;;;10.10;99.90;;;;;;7376041;19;20030;-64
2024/02/13 12:34:06;;;;;;;7.93;3.40;;;10.00;99.90;;;;;;7373968;19;20612;-66
2024/02/13 12:36:35;;;;;;;10.50;3.72;;;9.90;99.90;;;;;;7372298;19;20029;-66
2024/02/13 12:39:16;;;;;;;7.57;3.30;;;9.90;99.90;;;;;;7375992;19;20014;-64
2024/02/13 12:41:47;;;;;;;8.93;4.00;;;9.80;99.90;;;;;;7374220;19;20608;-65
2024/02/13 12:44:15;;;;;;;10.02;4.50;;;9.70;99.90;;;;;;7375510;19;20026;-65
2024/02/13 12:46:42;;;;;;;7.20;3.80;;;9.70;99.90;;;;;;7373588;19;20031;-66